Airfield :
LOGIN :

Register | Disclaimer

   EN    FR    IT 

 










Legend :    VFR   Marginal VFR   IFR   Intensive IFR   Very Intensive IFR
Visi :
Ceiling :
>= 8 km
>= 3000ft
5 to 8 km
1000 to 3000 ft
1500m to 5 km
500 to 1000 ft
800 to 1500m
200 to 500 ft
< 800m
< 200 ft
Symbols :   Thunderstorms  Fog  Heavy snow  Heavy precipitations  Wind > 20 kt
SIGMETs :     Misc.  Thunderstorms  Icing  Turbulence  Mountain Waves  Volcanic Ashes






- Airport Elevation : 373 ft
- IATA code : OZH


UKDE - Mokraya

CURRENT METAR :
  • 300700Z 25004MPS CAVOK 11/06 Q1003 R20L/090070 NOSIG

EXPIRED METARs :
  • 300600Z 27003MPS 230V290 CAVOK 10/05 Q1003 R20L/090070 NOSIG
  • 300530Z 25003MPS CAVOK 10/05 Q1003 R20L/090070 NOSIG
  • 300500Z 25002MPS CAVOK 09/04 Q1003 R20L/090070 NOSIG

TAF TAF UKDE
Valid from the 30 at 06:00 until the 30 at 15:00 UTC


300503Z 3006/3015 26003MPS 9999 SCT030



MET'MAP, your aeronautical weather chart ! - Copyright ORBIFLY December 2007 - Disclaimer

ORBIFLY MET'MAP TEAM :

Programming & Development : Alexandra Zaïnal
Concept & original design : Baudouin d'Aumeries
Assistance for programming : Marc-Olivier Méhu
Technical & hardware support : Manuel Goepfert

Contact : metmap@orbifly.com




SOURCES & CREDITS :

   NOAA